GCXO/TFN METAR and TAF weather

Enter ICAO airport designator
Station Type Date Time Source
GCXO METAR 2021/05/11 01:30 UTC NOAA

GCXO 110130Z AUTO 32008KT 9999 SCT019 BKN024 13/11 Q1023


Station Type Date Time Source
GCXO Decoded METAR 2021/05/11 01:30 UTC NOAA

Tenerife / Los Rodeos, Spain (GCXO) 28-28N 016-19W 617M
May 10, 2021 - 09:30 PM EDT / 2021.05.11 0130 UTC
Wind: from the NW (320 degrees) at 9 MPH (8 KT):0
Visibility: greater than 7 mile(s):0
Sky conditions: mostly cloudy
Temperature: 55 F (13 C)
Dew Point: 51 F (11 C)
Relative Humidity: 87%
Pressure (altimeter): 30.21 in. Hg (1023 hPa)
ob: GCXO 110130Z AUTO 32008KT 9999 SCT019 BKN024 13/11 Q1023
cycle: 1

Station Type Date Time Source
GCXO TAF 2021/05/10 21:27 UTC NOAA

TAF GCXO 102000Z 1021/1121 34009KT 9999 FEW005 SCT011 BKN025 TX20/1114Z TN12/1106Z PROB30
TEMPO 1021/1109 4500 DZ BCFG BKN005

Example: see airport list